createdAt,value
2018-03-25T00:00:47.229Z,11.65
2018-03-25T00:03:14.705Z,11.73
2018-03-25T00:05:42.159Z,12.68
2018-03-25T00:08:09.624Z,12.63
2018-03-25T00:10:37.096Z,13.62
2018-03-25T00:13:04.552Z,13.00
2018-03-25T00:15:32.783Z,12.23
2018-03-25T00:18:00.257Z,12.37
2018-03-25T00:20:27.719Z,12.75
2018-03-25T00:22:55.206Z,12.73
2018-03-25T00:25:22.704Z,13.10
2018-03-25T00:27:50.961Z,12.65
2018-03-25T00:30:18.419Z,12.52
2018-03-25T00:32:45.867Z,13.10
2018-03-25T00:35:13.369Z,12.77
2018-03-25T00:37:40.808Z,12.70
2018-03-25T00:40:08.252Z,12.93
2018-03-25T00:42:36.506Z,12.90
2018-03-25T00:45:03.945Z,11.75
2018-03-25T00:47:31.415Z,14.30
2018-03-25T00:49:58.864Z,13.45
2018-03-25T00:52:26.335Z,12.43
2018-03-25T00:54:53.777Z,12.40
2018-03-25T00:57:21.308Z,12.37
2018-03-25T00:59:48.784Z,12.90
2018-03-25T01:02:16.243Z,12.20
2018-03-25T01:04:43.708Z,12.95
2018-03-25T01:07:11.177Z,12.93
2018-03-25T01:09:38.639Z,12.20
2018-03-25T01:12:06.944Z,11.88
2018-03-25T01:14:34.436Z,13.23
2018-03-25T01:17:01.947Z,13.50
2018-03-25T01:19:29.371Z,12.15
2018-03-25T01:21:56.924Z,13.13
2018-03-25T01:24:24.401Z,13.43
2018-03-25T01:26:51.879Z,13.00
2018-03-25T01:29:19.350Z,13.15
2018-03-25T01:31:46.869Z,14.80
2018-03-25T01:34:14.314Z,11.85
2018-03-25T01:36:41.776Z,13.27
2018-03-25T01:39:09.224Z,12.85
2018-03-25T01:41:36.717Z,11.35
2018-03-25T01:44:04.183Z,13.13
2018-03-25T01:46:31.636Z,13.27
2018-03-25T01:48:59.092Z,14.30
2018-03-25T01:51:26.537Z,12.50
2018-03-25T01:53:53.992Z,12.40
2018-03-25T01:56:21.463Z,13.13
2018-03-25T01:58:48.916Z,11.32
2018-03-25T02:01:16.376Z,13.35
2018-03-25T02:03:43.865Z,12.37
2018-03-25T02:06:11.302Z,12.10
2018-03-25T02:08:38.882Z,13.27
2018-03-25T02:11:06.315Z,12.50
2018-03-25T02:13:33.768Z,12.85
2018-03-25T02:16:01.233Z,11.88
2018-03-25T02:18:28.699Z,13.62
2018-03-25T02:20:56.143Z,11.88
2018-03-25T02:23:23.587Z,12.20
2018-03-25T02:25:51.060Z,12.05
2018-03-25T02:28:18.510Z,12.10
2018-03-25T02:30:46.738Z,11.95
2018-03-25T02:33:14.204Z,11.65
2018-03-25T02:35:42.928Z,12.75
2018-03-25T02:38:10.373Z,14.07
2018-03-25T02:40:37.840Z,12.95
2018-03-25T02:43:05.279Z,12.43
2018-03-25T02:45:32.850Z,11.18
2018-03-25T02:48:00.303Z,11.85
2018-03-25T02:50:27.769Z,12.02
2018-03-25T02:52:55.240Z,12.48
2018-03-25T02:55:22.700Z,13.55
2018-03-25T02:57:50.148Z,12.70
2018-03-25T03:00:18.399Z,13.65
2018-03-25T03:02:45.840Z,13.00
2018-03-25T03:05:13.320Z,13.30
2018-03-25T03:07:40.799Z,12.45
2018-03-25T03:10:08.244Z,14.50
2018-03-25T03:12:35.697Z,13.23
2018-03-25T03:15:03.153Z,12.02
2018-03-25T03:17:30.605Z,13.45
2018-03-25T03:19:58.047Z,13.18
2018-03-25T03:22:25.531Z,14.23
2018-03-25T03:24:53.012Z,12.75
2018-03-25T03:27:21.353Z,13.07
2018-03-25T03:29:48.820Z,13.02
2018-03-25T03:32:16.278Z,14.75
2018-03-25T03:34:43.731Z,12.50
2018-03-25T03:37:11.188Z,12.30
2018-03-25T03:39:38.693Z,13.93
2018-03-25T03:42:06.971Z,14.20
2018-03-25T03:44:35.227Z,13.10
2018-03-25T03:47:03.524Z,14.68
2018-03-25T03:49:30.974Z,12.82
2018-03-25T03:51:59.211Z,14.63
2018-03-25T03:54:26.716Z,13.65
2018-03-25T03:56:54.145Z,13.55
2018-03-25T03:59:22.399Z,13.27
2018-03-25T04:01:49.837Z,13.55
2018-03-25T04:04:17.336Z,13.07
2018-03-25T04:06:45.542Z,14.85
2018-03-25T04:09:13.008Z,13.32
2018-03-25T04:11:40.462Z,13.15
2018-03-25T04:14:07.963Z,14.75
2018-03-25T04:16:35.479Z,14.80
2018-03-25T04:19:02.936Z,13.18
2018-03-25T04:21:30.405Z,14.98
2018-03-25T04:23:57.876Z,12.85
2018-03-25T04:26:25.293Z,14.05
2018-03-25T04:28:52.952Z,14.50
2018-03-25T04:31:20.411Z,13.45
2018-03-25T04:33:47.883Z,14.68
2018-03-25T04:36:16.158Z,14.23
2018-03-25T04:38:43.596Z,13.00
2018-03-25T04:41:11.186Z,14.60
2018-03-25T04:43:38.645Z,15.35
2018-03-25T04:46:06.115Z,13.73
2018-03-25T04:48:33.552Z,14.35
2018-03-25T04:51:01.014Z,13.85
2018-03-25T04:53:28.468Z,13.35
2018-03-25T04:55:55.933Z,14.30
2018-03-25T04:58:23.404Z,14.82
2018-03-25T05:00:51.641Z,13.82
2018-03-25T05:03:19.099Z,14.73
2018-03-25T05:05:46.576Z,15.07
2018-03-25T05:08:14.023Z,13.90
2018-03-25T05:10:41.498Z,13.93
2018-03-25T05:13:09.744Z,15.02
2018-03-25T05:15:37.219Z,12.75
2018-03-25T05:18:04.658Z,13.62
2018-03-25T05:20:32.871Z,13.88
2018-03-25T05:23:01.128Z,15.60
2018-03-25T05:25:28.595Z,14.60
2018-03-25T05:27:56.889Z,15.10
2018-03-25T05:30:24.361Z,13.65
2018-03-25T05:32:51.808Z,13.70
2018-03-25T05:35:19.241Z,14.38
2018-03-25T05:37:47.499Z,14.18
2018-03-25T05:40:14.984Z,15.07
2018-03-25T05:42:43.224Z,14.65
2018-03-25T05:45:10.704Z,14.23
2018-03-25T05:47:38.976Z,15.05
2018-03-25T05:50:07.190Z,13.70
2018-03-25T05:52:34.732Z,14.05
2018-03-25T05:55:02.201Z,14.20
2018-03-25T05:57:29.644Z,14.43
2018-03-25T05:59:57.132Z,14.55
2018-03-25T06:02:24.587Z,14.18
2018-03-25T06:04:52.806Z,14.48
2018-03-25T06:07:21.014Z,17.48
2018-03-25T06:09:48.468Z,14.80
2018-03-25T06:12:15.899Z,13.18
2018-03-25T06:14:43.370Z,14.20
2018-03-25T06:17:10.811Z,12.75
2018-03-25T06:19:39.061Z,14.45
2018-03-25T06:22:06.568Z,14.52
2018-03-25T06:24:34.007Z,14.82
2018-03-25T06:27:01.479Z,14.30
2018-03-25T06:29:28.944Z,15.13
2018-03-25T06:31:56.404Z,14.45
2018-03-25T06:34:23.844Z,14.73
2018-03-25T06:36:51.419Z,14.25
2018-03-25T06:39:18.877Z,14.15
2018-03-25T06:41:46.366Z,13.93
2018-03-25T06:44:13.806Z,14.98
2018-03-25T06:46:41.275Z,14.50
2018-03-25T06:49:08.776Z,14.05
2018-03-25T06:51:36.228Z,14.40
2018-03-25T06:54:03.678Z,14.52
2018-03-25T06:56:31.671Z,14.70
2018-03-25T06:58:59.120Z,14.87
2018-03-25T07:01:26.584Z,14.05
2018-03-25T07:03:54.027Z,13.73
2018-03-25T07:06:21.518Z,14.05
2018-03-25T07:08:48.975Z,13.13
2018-03-25T07:11:16.433Z,15.85
2018-03-25T07:13:43.920Z,16.12
2018-03-25T07:16:11.404Z,14.38
2018-03-25T07:18:39.041Z,15.02
2018-03-25T07:21:07.259Z,15.85
2018-03-25T07:23:34.725Z,16.27
2018-03-25T07:26:02.968Z,14.80
2018-03-25T07:28:30.431Z,15.20
2018-03-25T07:30:57.892Z,15.50
2018-03-25T07:33:25.448Z,15.20
2018-03-25T07:35:52.909Z,14.50
2018-03-25T07:38:20.377Z,15.95
2018-03-25T07:40:47.838Z,14.75
2018-03-25T07:43:15.300Z,16.25
2018-03-25T07:45:42.758Z,15.85
2018-03-25T07:48:10.239Z,15.85
2018-03-25T07:50:38.461Z,15.30
2018-03-25T07:53:05.938Z,17.17
2018-03-25T07:55:33.381Z,15.60
2018-03-25T07:58:00.889Z,15.68
2018-03-25T08:00:28.358Z,16.00
2018-03-25T08:02:56.577Z,15.88
2018-03-25T08:05:24.054Z,15.70
2018-03-25T08:07:51.514Z,16.27
2018-03-25T08:10:18.964Z,15.17
2018-03-25T08:12:46.426Z,15.87
2018-03-25T08:15:13.903Z,15.97
2018-03-25T08:17:42.144Z,16.60
2018-03-25T08:20:09.583Z,16.37
2018-03-25T08:22:37.056Z,15.40
2018-03-25T08:25:04.553Z,16.83
2018-03-25T08:27:32.771Z,16.20
2018-03-25T08:30:01.014Z,16.53
2018-03-25T08:32:28.471Z,16.83
2018-03-25T08:34:55.934Z,16.90
2018-03-25T08:37:23.386Z,16.30
2018-03-25T08:39:50.861Z,17.37
2018-03-25T08:42:18.325Z,16.73
2018-03-25T08:44:45.812Z,17.60
2018-03-25T08:47:13.397Z,18.30
2018-03-25T08:49:41.651Z,16.10
2018-03-25T08:52:09.157Z,18.50
2018-03-25T08:54:37.387Z,17.90
2018-03-25T08:57:05.474Z,18.70
2018-03-25T08:59:33.708Z,17.67
2018-03-25T09:02:01.159Z,18.73
2018-03-25T09:04:32.732Z,18.60
2018-03-25T09:07:00.503Z,18.70
2018-03-25T09:09:27.950Z,18.93
2018-03-25T09:11:55.418Z,19.37
2018-03-25T09:14:22.900Z,18.53
2018-03-25T09:16:51.111Z,18.53
2018-03-25T09:19:18.582Z,17.43
2018-03-25T09:21:46.054Z,18.30
2018-03-25T09:24:13.536Z,18.90
2018-03-25T09:26:41.748Z,18.93
2018-03-25T09:29:09.205Z,18.30
2018-03-25T09:31:36.695Z,19.40
2018-03-25T09:34:04.151Z,19.10
2018-03-25T09:36:31.626Z,19.03
2018-03-25T09:38:59.849Z,19.43
2018-03-25T09:41:27.284Z,19.80
2018-03-25T09:43:54.770Z,18.53
2018-03-25T09:46:23.004Z,18.60
2018-03-25T09:48:50.458Z,20.10
2018-03-25T09:51:17.918Z,19.00
2018-03-25T09:53:45.402Z,20.07
2018-03-25T09:56:12.880Z,20.13
2018-03-25T09:58:40.456Z,20.17
2018-03-25T10:01:13.604Z,21.83
2018-03-25T10:03:41.189Z,20.10
2018-03-25T10:06:08.667Z,20.43
2018-03-25T10:08:36.114Z,19.10
2018-03-25T10:11:03.582Z,19.97
2018-03-25T10:13:31.096Z,19.10
2018-03-25T10:15:58.670Z,19.67
2018-03-25T10:18:26.077Z,18.00
2018-03-25T10:20:54.336Z,20.50
2018-03-25T10:23:21.767Z,19.53
2018-03-25T10:25:49.249Z,18.53
2018-03-25T10:28:17.531Z,18.90
2018-03-25T10:30:45.775Z,19.47
2018-03-25T10:33:13.336Z,18.00
2018-03-25T10:35:40.810Z,19.60
2018-03-25T10:38:08.263Z,20.40
2018-03-25T10:40:35.769Z,21.77
2018-03-25T10:43:03.215Z,20.37
2018-03-25T10:45:30.668Z,18.80
2018-03-25T10:47:58.116Z,19.57
2018-03-25T10:52:59.553Z,19.47
2018-03-25T10:55:27.774Z,20.23
2018-03-25T10:57:55.229Z,18.80
2018-03-25T11:00:22.702Z,21.17
2018-03-25T11:02:50.135Z,18.97
2018-03-25T11:05:17.618Z,20.60
2018-03-25T11:07:45.090Z,19.27
2018-03-25T11:10:12.526Z,19.17
2018-03-25T11:12:40.011Z,18.47
2018-03-25T11:15:07.469Z,20.60
2018-03-25T11:17:35.013Z,19.90
2018-03-25T11:20:02.538Z,19.00
2018-03-25T11:22:29.985Z,19.87
2018-03-25T11:24:57.437Z,19.87
2018-03-25T11:27:24.977Z,19.97
2018-03-25T11:29:53.251Z,19.67
2018-03-25T11:32:20.723Z,20.33
2018-03-25T11:34:48.195Z,19.90
2018-03-25T11:37:15.681Z,19.90
2018-03-25T11:39:43.126Z,18.80
2018-03-25T11:42:10.623Z,18.90
2018-03-25T11:44:38.901Z,19.07
2018-03-25T11:47:07.135Z,19.90
2018-03-25T11:49:34.687Z,18.77
2018-03-25T11:52:02.122Z,19.80
2018-03-25T11:54:29.580Z,19.10
2018-03-25T11:56:57.142Z,18.63
2018-03-25T11:59:24.608Z,21.00
2018-03-25T12:01:52.067Z,19.87
2018-03-25T12:04:19.616Z,20.17
2018-03-25T12:06:47.943Z,19.17
2018-03-25T12:09:15.464Z,19.17
2018-03-25T12:11:42.926Z,19.37
2018-03-25T12:14:11.154Z,20.10
2018-03-25T12:16:38.652Z,17.87
2018-03-25T12:19:06.820Z,19.17
2018-03-25T12:21:34.282Z,18.90
2018-03-25T12:24:01.761Z,19.50
2018-03-25T12:26:29.219Z,19.00
2018-03-25T12:28:56.724Z,18.90
2018-03-25T12:31:24.167Z,17.77
2018-03-25T12:33:51.618Z,18.63
2018-03-25T12:36:19.086Z,17.97
2018-03-25T12:38:46.598Z,19.17
2018-03-25T12:41:14.005Z,19.23
2018-03-25T12:43:41.505Z,19.83
2018-03-25T12:46:09.705Z,18.13
2018-03-25T12:48:37.958Z,18.93
2018-03-25T12:51:05.448Z,17.40
2018-03-25T12:53:33.700Z,18.13
2018-03-25T12:56:01.930Z,18.27
2018-03-25T12:58:29.400Z,18.70
2018-03-25T13:00:56.924Z,16.97
2018-03-25T13:03:24.380Z,18.03
2018-03-25T13:05:51.856Z,16.70
2018-03-25T13:08:19.367Z,18.00
2018-03-25T13:10:46.798Z,17.87
2018-03-25T13:13:14.232Z,17.60
2018-03-25T13:15:41.712Z,16.93
2018-03-25T13:18:09.171Z,17.80
2018-03-25T13:20:36.651Z,16.67
2018-03-25T13:23:04.917Z,17.30
2018-03-25T13:25:33.652Z,17.60
2018-03-25T13:28:01.118Z,18.10
2018-03-25T13:30:29.235Z,16.90
2018-03-25T13:32:56.721Z,15.60
2018-03-25T13:35:24.224Z,16.60
2018-03-25T13:37:51.702Z,16.70
2018-03-25T13:40:19.138Z,16.40
2018-03-25T13:42:46.636Z,15.27
2018-03-25T13:45:14.086Z,15.47
2018-03-25T13:47:42.314Z,16.90
2018-03-25T13:50:09.852Z,14.70
2018-03-25T13:52:37.546Z,16.90
2018-03-25T13:55:05.000Z,17.40
2018-03-25T13:57:33.243Z,15.90
2018-03-25T14:00:00.694Z,16.63
2018-03-25T14:02:28.174Z,17.53
2018-03-25T14:04:55.677Z,16.17
2018-03-25T14:07:23.135Z,15.30
2018-03-25T14:09:51.348Z,17.33
2018-03-25T14:12:18.807Z,15.40
2018-03-25T14:14:46.283Z,14.83
2018-03-25T14:17:13.737Z,16.67
2018-03-25T14:19:41.288Z,16.03
2018-03-25T14:22:08.739Z,16.47
2018-03-25T14:24:36.207Z,16.80
2018-03-25T14:27:03.655Z,17.07
2018-03-25T14:29:31.138Z,17.47
2018-03-25T14:31:58.601Z,16.70
2018-03-25T14:34:27.001Z,16.70
2018-03-25T14:36:54.447Z,16.90
2018-03-25T14:39:22.688Z,15.13
2018-03-25T14:41:50.136Z,18.50
2018-03-25T14:44:17.581Z,19.10
2018-03-25T14:46:45.141Z,16.70
2018-03-25T14:49:12.628Z,17.93
2018-03-25T14:51:40.111Z,16.43
2018-03-25T14:54:08.339Z,16.20
2018-03-25T14:56:35.858Z,15.43
2018-03-25T14:59:03.264Z,16.33
2018-03-25T15:01:30.728Z,16.63
2018-03-25T15:03:58.242Z,16.13
2018-03-25T15:06:26.447Z,17.30
2018-03-25T15:08:53.904Z,16.67
2018-03-25T15:11:21.376Z,15.23
2018-03-25T15:13:48.830Z,16.37
2018-03-25T15:16:17.071Z,15.10
2018-03-25T15:18:44.543Z,15.30
2018-03-25T15:21:12.019Z,16.33
2018-03-25T15:23:39.487Z,17.40
2018-03-25T15:26:07.760Z,18.00
2018-03-25T15:28:35.200Z,18.63
2018-03-25T15:31:02.669Z,16.83
2018-03-25T15:33:30.899Z,17.00
2018-03-25T15:35:58.359Z,16.87
2018-03-25T15:38:25.829Z,15.33
2018-03-25T15:40:53.281Z,14.23
2018-03-25T15:43:21.427Z,14.80
2018-03-25T15:45:48.872Z,15.63
2018-03-25T15:48:16.328Z,15.50
2018-03-25T15:50:43.780Z,15.50
2018-03-25T15:53:11.317Z,17.57
2018-03-25T15:55:39.563Z,16.20
2018-03-25T15:58:07.055Z,16.27
2018-03-25T16:00:34.514Z,15.17
2018-03-25T16:03:02.739Z,15.53
2018-03-25T16:05:30.229Z,16.23
2018-03-25T16:07:58.462Z,16.50
2018-03-25T16:10:25.920Z,17.53
2018-03-25T16:12:53.420Z,15.37
2018-03-25T16:15:20.919Z,15.23
2018-03-25T16:17:48.408Z,15.67
2018-03-25T16:20:15.884Z,17.00
2018-03-25T16:22:43.507Z,17.60
2018-03-25T16:25:10.946Z,16.00
2018-03-25T16:27:38.398Z,15.83
2018-03-25T16:30:05.877Z,15.77
2018-03-25T16:32:33.468Z,15.67
2018-03-25T16:35:01.754Z,17.97
2018-03-25T16:37:29.987Z,16.53
2018-03-25T16:39:57.448Z,15.97
2018-03-25T16:42:24.943Z,15.00
2018-03-25T16:44:53.184Z,15.00
2018-03-25T16:47:20.649Z,16.20
2018-03-25T16:49:48.111Z,14.50
2018-03-25T16:52:16.356Z,14.20
2018-03-25T16:54:43.833Z,16.20
2018-03-25T16:57:11.312Z,16.90
2018-03-25T16:59:39.525Z,16.53
2018-03-25T17:02:06.991Z,15.10
2018-03-25T17:04:34.453Z,17.10
2018-03-25T17:07:01.920Z,14.83
2018-03-25T17:09:29.386Z,16.63
2018-03-25T17:11:56.859Z,17.13
2018-03-25T17:14:24.301Z,16.47
2018-03-25T17:16:51.763Z,15.90
2018-03-25T17:19:19.375Z,15.77
2018-03-25T17:21:46.831Z,16.17
2018-03-25T17:24:14.329Z,16.07
2018-03-25T17:26:41.824Z,17.03
2018-03-25T17:29:10.108Z,16.00
2018-03-25T17:31:38.383Z,15.67
2018-03-25T17:34:05.861Z,15.90
2018-03-25T17:36:33.324Z,14.87
2018-03-25T17:39:00.870Z,16.93
2018-03-25T17:41:28.349Z,15.30
2018-03-25T17:43:55.809Z,14.60
2018-03-25T17:46:23.353Z,16.00
2018-03-25T17:48:50.899Z,15.47
2018-03-25T17:51:18.351Z,15.90
2018-03-25T17:53:45.820Z,15.27
2018-03-25T17:56:13.478Z,16.97
2018-03-25T17:58:40.930Z,15.40
2018-03-25T18:01:08.392Z,16.23
2018-03-25T18:03:35.849Z,16.70
2018-03-25T18:06:03.427Z,17.40
2018-03-25T18:08:30.889Z,16.50
2018-03-25T18:10:58.352Z,17.10
2018-03-25T18:13:25.884Z,15.40
2018-03-25T18:15:53.459Z,15.30
2018-03-25T18:18:20.942Z,17.30
2018-03-25T18:20:56.295Z,15.20
2018-03-25T18:23:16.687Z,16.50
2018-03-25T18:25:44.880Z,13.97
2018-03-25T18:28:12.389Z,14.97
2018-03-25T18:30:39.846Z,16.73
2018-03-25T18:33:07.315Z,15.60
2018-03-25T18:35:35.590Z,16.77
2018-03-25T18:38:03.058Z,16.10
2018-03-25T18:40:31.322Z,17.80
2018-03-25T18:42:59.581Z,17.43
2018-03-25T18:45:27.057Z,16.57
2018-03-25T18:47:55.297Z,16.07
2018-03-25T18:50:22.756Z,15.47
2018-03-25T18:52:50.240Z,16.40
2018-03-25T18:55:17.691Z,17.37
2018-03-25T18:57:45.159Z,16.00
2018-03-25T19:00:12.653Z,16.00
2018-03-25T19:02:40.141Z,16.65
2018-03-25T19:05:07.627Z,17.33
2018-03-25T19:07:35.952Z,16.23
2018-03-25T19:10:03.468Z,16.05
2018-03-25T19:12:31.162Z,16.17
2018-03-25T19:14:58.632Z,16.50
2018-03-25T19:17:26.248Z,15.93
2018-03-25T19:19:53.721Z,15.77
2018-03-25T19:22:21.182Z,16.85
2018-03-25T19:24:48.635Z,16.00
2018-03-25T19:27:16.144Z,16.83
2018-03-25T19:29:44.482Z,17.70
2018-03-25T19:32:12.015Z,15.95
2018-03-25T19:34:39.496Z,15.90
2018-03-25T19:37:07.069Z,16.25
2018-03-25T19:39:34.539Z,15.57
2018-03-25T19:42:02.024Z,17.25
2018-03-25T19:44:30.233Z,17.37
2018-03-25T19:46:57.741Z,17.02
2018-03-25T19:49:25.965Z,15.35
2018-03-25T19:51:53.533Z,14.55
2018-03-25T19:54:20.976Z,16.00
2018-03-25T19:56:48.448Z,16.27
2018-03-25T19:59:15.938Z,15.25
2018-03-25T20:01:48.519Z,16.87
2018-03-25T20:04:16.186Z,14.93
2018-03-25T20:06:44.259Z,16.00
2018-03-25T20:09:11.754Z,17.25
2018-03-25T20:11:39.804Z,16.58
2018-03-25T20:14:07.307Z,15.57
2018-03-25T20:16:35.532Z,16.02
2018-03-25T20:19:03.765Z,14.70
2018-03-25T20:21:31.313Z,17.20
2018-03-25T20:23:58.787Z,17.23
2018-03-25T20:26:26.232Z,17.73
2018-03-25T20:28:53.715Z,15.80
2018-03-25T20:31:21.949Z,16.90
2018-03-25T20:33:49.414Z,16.37
2018-03-25T20:36:17.642Z,15.93
2018-03-25T20:38:45.140Z,15.07
2018-03-25T20:41:12.885Z,15.68
2018-03-25T20:43:40.347Z,16.25
2018-03-25T20:46:07.874Z,16.52
2018-03-25T20:48:35.401Z,15.88
2018-03-25T20:51:02.862Z,18.37
2018-03-25T20:53:31.100Z,16.48
2018-03-25T21:05:43.579Z,14.70
2018-03-25T21:08:11.024Z,14.00
2018-03-25T21:10:39.257Z,13.85
2018-03-25T21:13:06.730Z,14.65
2018-03-25T21:15:34.216Z,14.70
2018-03-25T21:18:01.702Z,15.82
2018-03-25T21:20:29.959Z,15.50
2018-03-25T21:22:57.405Z,15.43
2018-03-25T21:25:24.877Z,14.93
2018-03-25T21:27:52.329Z,16.95
2018-03-25T21:30:19.809Z,18.12
2018-03-25T21:32:48.055Z,17.17
2018-03-25T21:35:15.516Z,18.40
2018-03-25T21:37:42.980Z,19.20
2018-03-25T21:40:10.432Z,17.17
2018-03-25T21:42:37.940Z,18.42
2018-03-25T21:45:05.388Z,17.90
2018-03-25T21:47:32.867Z,19.42
2018-03-25T21:50:00.324Z,17.42
2018-03-25T21:52:27.799Z,17.80
2018-03-25T21:54:55.887Z,17.70
2018-03-25T21:57:23.372Z,17.65
2018-03-25T21:59:51.601Z,19.10
2018-03-25T22:02:19.546Z,19.12
2018-03-25T22:04:47.017Z,20.17
2018-03-25T22:07:14.472Z,21.83
2018-03-25T22:09:41.914Z,21.77
2018-03-25T22:12:09.532Z,20.58
2018-03-25T22:14:37.807Z,21.20
2018-03-25T22:17:06.026Z,21.48
2018-03-25T22:19:33.501Z,21.40
2018-03-25T22:22:00.958Z,22.52
2018-03-25T22:24:28.441Z,23.15
2018-03-25T22:26:56.656Z,24.33
2018-03-25T22:29:24.180Z,25.58
2018-03-25T22:31:52.992Z,24.58
2018-03-25T22:34:20.457Z,22.80
2018-03-25T22:36:47.932Z,23.55
2018-03-25T22:39:15.405Z,24.70
2018-03-25T22:41:43.547Z,24.98
2018-03-25T22:44:11.018Z,23.02
2018-03-25T22:46:38.453Z,25.17
2018-03-25T22:49:05.928Z,24.77
2018-03-25T22:51:33.389Z,24.20
2018-03-25T22:54:01.628Z,23.95
2018-03-25T22:56:29.090Z,24.92
2018-03-25T22:58:56.575Z,24.55
2018-03-25T23:01:24.032Z,24.05
2018-03-25T23:03:51.485Z,24.52
2018-03-25T23:06:18.949Z,26.40
2018-03-25T23:08:46.442Z,24.12
2018-03-25T23:11:14.681Z,25.55
2018-03-25T23:13:42.127Z,22.85
2018-03-25T23:16:09.595Z,26.27
2018-03-25T23:18:37.055Z,26.33
2018-03-25T23:21:04.523Z,23.98
2018-03-25T23:23:31.996Z,26.20
2018-03-25T23:25:59.462Z,26.20
2018-03-25T23:28:27.700Z,24.50
2018-03-25T23:30:55.245Z,26.30
2018-03-25T23:33:23.169Z,25.58
2018-03-25T23:35:50.612Z,24.50
2018-03-25T23:38:18.851Z,23.70
2018-03-25T23:40:46.307Z,25.52
2018-03-25T23:43:13.783Z,23.95
2018-03-25T23:45:41.307Z,24.92
2018-03-25T23:48:08.771Z,26.10
2018-03-25T23:50:36.220Z,23.58
2018-03-25T23:53:03.688Z,22.37
2018-03-25T23:55:31.139Z,25.67
2018-03-25T23:57:59.394Z,26.02
